createdAt,value
2018-07-15T00:00:03.299Z,88.76
2018-07-15T00:02:32.473Z,88.97
2018-07-15T00:05:01.378Z,88.84
2018-07-15T00:07:30.395Z,89.38
2018-07-15T00:09:59.622Z,89.05
2018-07-15T00:12:28.789Z,89.82
2018-07-15T00:14:57.781Z,89.81
2018-07-15T00:17:26.977Z,90.50
2018-07-15T00:19:56.154Z,89.18
2018-07-15T00:22:25.597Z,90.03
2018-07-15T00:24:54.846Z,89.47
2018-07-15T00:27:24.735Z,90.29
2018-07-15T00:29:54.270Z,91.21
2018-07-15T00:32:23.366Z,91.97
2018-07-15T00:34:52.394Z,92.11
2018-07-15T00:37:21.461Z,93.34
2018-07-15T00:39:50.763Z,93.88
2018-07-15T00:42:19.890Z,94.34
2018-07-15T00:44:49.167Z,95.19
2018-07-15T00:47:18.538Z,94.07
2018-07-15T00:49:47.663Z,95.19
2018-07-15T00:52:16.857Z,94.21
2018-07-15T00:54:46.065Z,93.56
2018-07-15T00:57:15.253Z,94.64
2018-07-15T00:59:44.633Z,94.33
2018-07-15T01:02:13.838Z,94.38
2018-07-15T01:04:42.925Z,94.61
2018-07-15T01:07:12.061Z,94.06
2018-07-15T01:09:41.363Z,95.37
2018-07-15T01:12:10.590Z,95.08
2018-07-15T01:14:39.737Z,94.65
2018-07-15T01:17:08.941Z,94.57
2018-07-15T01:19:38.228Z,94.58
2018-07-15T01:22:07.333Z,93.97
2018-07-15T01:24:36.599Z,93.44
2018-07-15T01:27:05.899Z,94.34
2018-07-15T01:29:35.117Z,94.32
2018-07-15T01:32:04.292Z,94.99
2018-07-15T01:34:33.514Z,95.46
2018-07-15T01:37:02.609Z,95.78
2018-07-15T01:39:31.938Z,94.64
2018-07-15T01:42:01.167Z,95.13
2018-07-15T01:44:30.364Z,96.17
2018-07-15T01:46:59.537Z,96.00
2018-07-15T01:49:28.730Z,96.35
2018-07-15T01:51:57.961Z,96.88
2018-07-15T01:54:26.682Z,96.97
2018-07-15T01:56:55.405Z,97.29
2018-07-15T01:59:24.146Z,97.54
2018-07-15T02:01:52.866Z,99.23
2018-07-15T02:04:21.618Z,99.51
2018-07-15T02:06:50.334Z,99.02
2018-07-15T02:09:19.118Z,97.98
2018-07-15T02:11:47.944Z,98.55
2018-07-15T02:14:16.704Z,99.21
2018-07-15T02:16:45.471Z,97.70
2018-07-15T02:19:14.245Z,98.34
2018-07-15T02:21:43.003Z,99.26
2018-07-15T02:24:11.751Z,98.80
2018-07-15T02:26:40.477Z,99.09
2018-07-15T02:29:09.223Z,98.58
2018-07-15T02:31:38.017Z,100.00
2018-07-15T02:34:08.601Z,98.70
2018-07-15T02:36:37.405Z,97.32
2018-07-15T02:39:07.924Z,97.81
2018-07-15T02:41:36.772Z,97.98
2018-07-15T02:44:05.978Z,98.18
2018-07-15T02:46:34.831Z,98.14
2018-07-15T02:49:03.546Z,99.04
2018-07-15T02:51:32.238Z,98.48
2018-07-15T02:54:00.948Z,98.93
2018-07-15T02:56:29.650Z,99.36
2018-07-15T02:58:58.396Z,99.82
2018-07-15T03:01:27.111Z,98.50
2018-07-15T03:03:55.831Z,98.93
2018-07-15T03:06:24.552Z,99.12
2018-07-15T03:08:53.282Z,99.10
2018-07-15T03:11:22.162Z,98.81
2018-07-15T03:13:51.027Z,98.50
2018-07-15T03:16:19.784Z,97.11
2018-07-15T03:18:48.526Z,96.05
2018-07-15T03:21:17.272Z,96.13
2018-07-15T03:23:51.602Z,95.02
2018-07-15T03:26:20.363Z,95.99
2018-07-15T03:28:49.701Z,95.30
2018-07-15T03:31:18.431Z,95.00
2018-07-15T03:33:47.128Z,94.78
2018-07-15T03:36:15.892Z,94.50
2018-07-15T03:38:44.678Z,93.40
2018-07-15T03:41:13.406Z,92.16
2018-07-15T03:43:42.228Z,88.57
2018-07-15T03:46:10.964Z,79.04
2018-07-15T03:48:39.681Z,71.51
2018-07-15T03:51:08.481Z,65.13
2018-07-15T03:53:37.170Z,60.88
2018-07-15T03:56:05.893Z,57.35
2018-07-15T03:58:34.633Z,53.95
2018-07-15T04:01:03.400Z,49.81
2018-07-15T04:03:32.116Z,46.75
2018-07-15T04:06:00.837Z,47.20
2018-07-15T04:08:29.717Z,43.53
2018-07-15T04:10:58.528Z,43.17
2018-07-15T04:13:27.418Z,40.69
2018-07-15T04:15:56.131Z,40.22
2018-07-15T04:18:24.821Z,40.69
2018-07-15T04:20:53.589Z,39.99
2018-07-15T04:23:22.414Z,38.49
2018-07-15T04:25:51.171Z,37.99
2018-07-15T04:28:19.941Z,37.01
2018-07-15T04:30:48.658Z,38.23
2018-07-15T04:33:17.375Z,37.03
2018-07-15T04:35:46.102Z,35.80
2018-07-15T04:38:14.850Z,34.88
2018-07-15T04:40:43.563Z,35.69
2018-07-15T04:43:12.271Z,33.95
2018-07-15T04:45:40.971Z,34.36
2018-07-15T04:48:09.736Z,34.29
2018-07-15T04:50:38.451Z,34.46
2018-07-15T04:53:07.173Z,34.08
2018-07-15T04:55:35.975Z,33.86
2018-07-15T04:58:04.714Z,33.50
2018-07-15T05:00:33.436Z,34.28
2018-07-15T05:03:02.213Z,34.94
2018-07-15T05:05:30.916Z,34.56
2018-07-15T05:07:59.613Z,34.90
2018-07-15T05:10:28.305Z,34.21
2018-07-15T05:12:57.017Z,33.55
2018-07-15T05:15:25.832Z,31.14
2018-07-15T05:17:54.608Z,30.42
2018-07-15T05:20:23.332Z,29.40
2018-07-15T05:22:52.061Z,29.90
2018-07-15T05:25:20.764Z,31.99
2018-07-15T05:27:49.494Z,31.77
2018-07-15T05:30:18.209Z,30.15
2018-07-15T05:32:46.937Z,29.12
2018-07-15T05:35:15.643Z,28.67
2018-07-15T05:37:44.332Z,28.20
2018-07-15T05:40:13.096Z,26.40
2018-07-15T05:42:41.802Z,25.31
2018-07-15T05:45:10.533Z,25.61
2018-07-15T05:47:39.296Z,27.75
2018-07-15T05:50:08.083Z,26.39
2018-07-15T05:52:36.851Z,25.24
2018-07-15T05:55:05.738Z,25.83
2018-07-15T05:57:34.450Z,27.79
2018-07-15T06:00:03.196Z,25.92
2018-07-15T06:02:31.931Z,25.46
2018-07-15T06:05:00.699Z,27.21
2018-07-15T06:07:29.457Z,27.17
2018-07-15T06:09:58.370Z,26.73
2018-07-15T06:12:27.145Z,27.24
2018-07-15T06:14:55.845Z,26.90
2018-07-15T06:17:24.593Z,26.87
2018-07-15T06:19:53.297Z,27.29
2018-07-15T06:22:21.987Z,27.48
2018-07-15T06:24:50.695Z,27.25
2018-07-15T06:27:19.469Z,26.93
2018-07-15T06:29:48.148Z,29.53
2018-07-15T06:32:16.846Z,26.38
2018-07-15T06:34:45.593Z,26.79
2018-07-15T06:37:14.286Z,29.92
2018-07-15T06:39:42.992Z,28.98
2018-07-15T06:42:11.901Z,29.82
2018-07-15T06:44:40.586Z,27.50
2018-07-15T06:47:09.341Z,29.09
2018-07-15T06:49:38.032Z,28.02
2018-07-15T06:52:06.781Z,28.06
2018-07-15T06:54:35.482Z,29.08
2018-07-15T06:57:04.177Z,27.52
2018-07-15T06:59:32.882Z,28.27
2018-07-15T07:02:01.618Z,28.54
2018-07-15T07:04:30.562Z,27.85
2018-07-15T07:06:59.299Z,29.08
2018-07-15T07:09:27.985Z,28.88
2018-07-15T07:11:56.676Z,26.66
2018-07-15T07:14:25.368Z,27.04
2018-07-15T07:16:54.053Z,27.43
2018-07-15T07:19:22.813Z,27.87
2018-07-15T07:21:51.496Z,26.27
2018-07-15T07:24:20.333Z,28.85
2018-07-15T07:26:49.056Z,29.61
2018-07-15T07:29:17.765Z,29.55
2018-07-15T07:31:47.457Z,29.43
2018-07-15T07:34:16.148Z,27.16
2018-07-15T07:36:44.941Z,29.14
2018-07-15T07:39:13.681Z,28.62
2018-07-15T07:41:42.397Z,28.14
2018-07-15T07:44:11.154Z,28.99
2018-07-15T07:46:39.852Z,28.77
2018-07-15T07:49:08.543Z,31.85
2018-07-15T07:51:37.276Z,27.84
2018-07-15T07:54:06.024Z,28.34
2018-07-15T07:56:34.811Z,25.83
2018-07-15T07:59:03.545Z,27.07
2018-07-15T08:01:32.245Z,26.95
2018-07-15T08:04:00.937Z,29.16
2018-07-15T08:06:29.714Z,30.09
2018-07-15T08:08:58.393Z,28.31
2018-07-15T08:11:27.245Z,29.43
2018-07-15T08:13:55.943Z,28.22
2018-07-15T08:16:24.649Z,28.26
2018-07-15T08:18:53.389Z,29.81
2018-07-15T08:21:22.085Z,30.68
2018-07-15T08:23:50.773Z,30.18
2018-07-15T08:26:19.545Z,28.96
2018-07-15T08:28:48.260Z,27.93
2018-07-15T08:31:18.503Z,29.23
2018-07-15T08:33:47.308Z,28.78
2018-07-15T08:36:16.001Z,28.98
2018-07-15T08:38:44.679Z,28.22
2018-07-15T08:41:13.425Z,29.17
2018-07-15T08:43:42.118Z,30.14
2018-07-15T08:46:10.968Z,29.49
2018-07-15T08:48:39.695Z,31.49
2018-07-15T08:51:08.574Z,29.66
2018-07-15T08:53:37.316Z,30.74
2018-07-15T08:56:06.066Z,28.46
2018-07-15T08:58:34.781Z,30.12
2018-07-15T09:01:03.524Z,29.78
2018-07-15T09:03:32.222Z,26.72
2018-07-15T09:06:00.957Z,29.69
2018-07-15T09:08:29.653Z,28.21
2018-07-15T09:10:58.357Z,25.89
2018-07-15T09:13:27.069Z,30.03
2018-07-15T09:15:55.777Z,29.11
2018-07-15T09:18:25.042Z,29.24
2018-07-15T09:20:53.778Z,29.16
2018-07-15T09:23:22.504Z,28.30
2018-07-15T09:25:51.189Z,28.62
2018-07-15T09:28:19.885Z,27.13
2018-07-15T09:30:48.628Z,28.30
2018-07-15T09:33:17.326Z,26.54
2018-07-15T09:35:46.078Z,29.64
2018-07-15T09:38:14.870Z,29.28
2018-07-15T09:40:43.585Z,31.07
2018-07-15T09:43:12.354Z,30.48
2018-07-15T09:45:41.128Z,30.45
2018-07-15T09:48:10.701Z,29.87
2018-07-15T09:50:39.547Z,28.50
2018-07-15T09:53:08.246Z,28.17
2018-07-15T09:55:37.046Z,29.93
2018-07-15T09:58:05.834Z,29.63
2018-07-15T10:00:39.717Z,27.72
2018-07-15T10:03:08.414Z,28.08
2018-07-15T10:05:37.129Z,29.22
2018-07-15T10:08:05.886Z,30.17
2018-07-15T10:10:34.607Z,27.36
2018-07-15T10:13:03.315Z,27.60
2018-07-15T10:15:32.029Z,29.38
2018-07-15T10:18:00.753Z,28.60
2018-07-15T10:20:29.457Z,26.76
2018-07-15T10:22:58.162Z,28.34
2018-07-15T10:25:26.876Z,27.50
2018-07-15T10:27:55.577Z,26.96
2018-07-15T10:30:24.437Z,28.86
2018-07-15T10:32:53.353Z,27.94
2018-07-15T10:35:22.059Z,27.17
2018-07-15T10:37:50.828Z,27.15
2018-07-15T10:40:19.551Z,27.87
2018-07-15T10:42:48.461Z,29.50
2018-07-15T10:45:17.206Z,29.37
2018-07-15T10:47:46.066Z,28.42
2018-07-15T10:50:14.825Z,27.59
2018-07-15T10:52:43.658Z,25.85
2018-07-15T10:55:12.373Z,26.44
2018-07-15T10:57:41.075Z,26.97
2018-07-15T11:00:09.787Z,24.04
2018-07-15T11:02:38.502Z,27.28
2018-07-15T11:05:07.741Z,25.16
2018-07-15T11:07:36.442Z,28.00
2018-07-15T11:12:39.005Z,26.89
2018-07-15T11:15:07.686Z,27.81
2018-07-15T11:17:36.442Z,26.48
2018-07-15T11:20:05.251Z,28.36
2018-07-15T11:22:33.953Z,28.88
2018-07-15T11:25:02.692Z,27.41
2018-07-15T11:27:31.414Z,28.58
2018-07-15T11:30:00.323Z,28.94
2018-07-15T11:32:29.029Z,27.40
2018-07-15T11:34:57.717Z,27.33
2018-07-15T11:37:26.478Z,28.42
2018-07-15T11:39:55.197Z,27.40
2018-07-15T11:42:24.070Z,26.47
2018-07-15T11:44:52.799Z,27.80
2018-07-15T11:47:21.489Z,29.81
2018-07-15T11:49:50.214Z,29.73
2018-07-15T11:52:18.982Z,26.45
2018-07-15T11:54:47.816Z,26.17
2018-07-15T11:57:16.541Z,27.64
2018-07-15T11:59:45.235Z,25.90
2018-07-15T12:02:13.954Z,26.51
2018-07-15T12:04:42.649Z,25.04
2018-07-15T12:07:11.362Z,23.37
2018-07-15T12:09:40.062Z,25.18
2018-07-15T12:12:08.769Z,29.42
2018-07-15T12:14:37.515Z,25.93
2018-07-15T12:17:06.214Z,26.60
2018-07-15T12:19:35.049Z,26.74
2018-07-15T12:22:03.742Z,25.66
2018-07-15T12:24:32.425Z,26.62
2018-07-15T12:27:01.117Z,25.77
2018-07-15T12:29:29.805Z,26.17
2018-07-15T12:31:58.528Z,24.96
2018-07-15T12:34:27.204Z,25.77
2018-07-15T12:36:55.964Z,26.27
2018-07-15T12:39:24.702Z,26.26
2018-07-15T12:41:53.384Z,29.19
2018-07-15T12:44:22.182Z,29.34
2018-07-15T12:46:51.294Z,31.11
2018-07-15T12:49:20.188Z,33.94
2018-07-15T12:51:48.981Z,34.10
2018-07-15T12:54:17.764Z,34.46
2018-07-15T12:56:46.679Z,33.78
2018-07-15T12:59:15.854Z,35.81
2018-07-15T13:01:44.711Z,35.10
2018-07-15T13:04:13.442Z,33.87
2018-07-15T13:06:42.582Z,34.03
2018-07-15T13:09:11.827Z,35.40
2018-07-15T13:11:41.165Z,36.92
2018-07-15T13:14:10.334Z,35.57
2018-07-15T13:16:39.569Z,33.41
2018-07-15T13:19:08.389Z,33.66
2018-07-15T13:21:37.178Z,35.00
2018-07-15T13:24:05.952Z,35.67
2018-07-15T13:26:34.682Z,34.35
2018-07-15T13:29:03.479Z,35.12
2018-07-15T13:31:32.334Z,33.34
2018-07-15T13:34:01.159Z,33.74
2018-07-15T13:36:30.033Z,35.16
2018-07-15T13:38:58.835Z,34.94
2018-07-15T13:41:27.641Z,34.84
2018-07-15T13:43:56.896Z,35.06
2018-07-15T13:46:25.621Z,36.09
2018-07-15T13:48:54.435Z,35.29
2018-07-15T13:51:23.296Z,35.44
2018-07-15T13:53:52.116Z,36.89
2018-07-15T13:56:20.894Z,35.45
2018-07-15T13:58:49.843Z,34.44
2018-07-15T14:01:18.579Z,35.58
2018-07-15T14:03:47.319Z,34.94
2018-07-15T14:06:16.161Z,36.65
2018-07-15T14:08:44.934Z,36.80
2018-07-15T14:11:13.744Z,37.67
2018-07-15T14:13:42.538Z,35.89
2018-07-15T14:16:11.282Z,36.35
2018-07-15T14:18:40.091Z,35.84
2018-07-15T14:21:08.863Z,36.10
2018-07-15T14:23:37.600Z,35.66
2018-07-15T14:26:06.555Z,35.79
2018-07-15T14:28:35.343Z,34.98
2018-07-15T14:31:04.200Z,34.96
2018-07-15T14:33:32.978Z,35.70
2018-07-15T14:36:01.879Z,36.89
2018-07-15T14:38:30.666Z,35.83
2018-07-15T14:40:59.866Z,36.94
2018-07-15T14:43:28.625Z,38.79
2018-07-15T14:45:57.519Z,35.49
2018-07-15T14:48:26.414Z,36.24
2018-07-15T14:50:55.758Z,35.32
2018-07-15T14:53:24.954Z,35.91
2018-07-15T14:55:54.156Z,37.00
2018-07-15T14:58:23.331Z,36.02
2018-07-15T15:00:52.627Z,35.55
2018-07-15T15:03:21.839Z,35.05
2018-07-15T15:05:50.585Z,36.14
2018-07-15T15:08:19.404Z,36.46
2018-07-15T15:10:48.259Z,37.57
2018-07-15T15:13:17.224Z,36.71
2018-07-15T15:15:46.105Z,36.36
2018-07-15T15:18:14.983Z,38.59
2018-07-15T15:20:43.965Z,36.34
2018-07-15T15:23:13.040Z,36.86
2018-07-15T15:25:42.361Z,37.49
2018-07-15T15:28:11.751Z,38.28
2018-07-15T15:30:41.026Z,38.71
2018-07-15T15:33:10.194Z,38.36
2018-07-15T15:35:39.248Z,38.81
2018-07-15T15:38:08.513Z,38.05
2018-07-15T15:40:39.291Z,41.52
2018-07-15T15:43:09.225Z,39.73
2018-07-15T15:45:38.358Z,41.00
2018-07-15T15:48:07.818Z,41.12
2018-07-15T15:50:36.970Z,40.73
2018-07-15T15:53:06.199Z,39.97
2018-07-15T15:55:35.413Z,40.53
2018-07-15T15:58:04.644Z,42.30
2018-07-15T16:00:33.869Z,41.12
2018-07-15T16:03:03.087Z,41.18
2018-07-15T16:05:32.337Z,42.47
2018-07-15T16:08:01.588Z,42.23
2018-07-15T16:10:31.635Z,41.47
2018-07-15T16:13:01.859Z,42.48
2018-07-15T16:15:31.222Z,42.99
2018-07-15T16:18:00.942Z,43.13
2018-07-15T16:20:30.162Z,44.09
2018-07-15T16:22:59.933Z,43.92
2018-07-15T16:25:31.035Z,43.76
2018-07-15T16:28:01.714Z,44.46
2018-07-15T16:30:32.652Z,43.73
2018-07-15T16:33:01.854Z,44.71
2018-07-15T16:35:30.853Z,44.97
2018-07-15T16:38:00.159Z,45.83
2018-07-15T16:40:29.254Z,45.87
2018-07-15T16:43:00.419Z,46.80
2018-07-15T16:45:32.650Z,46.79
2018-07-15T16:48:03.590Z,48.01
2018-07-15T16:50:34.562Z,48.13
2018-07-15T16:53:04.796Z,47.82
2018-07-15T16:55:34.110Z,48.14
2018-07-15T16:58:03.364Z,48.98
2018-07-15T17:00:32.556Z,48.54
2018-07-15T17:03:01.793Z,49.87
2018-07-15T17:05:30.941Z,51.46
2018-07-15T17:08:00.247Z,51.10
2018-07-15T17:10:29.355Z,50.99
2018-07-15T17:12:58.597Z,52.54
2018-07-15T17:15:27.941Z,54.03
2018-07-15T17:17:57.155Z,56.16
2018-07-15T17:20:26.394Z,55.59
2018-07-15T17:22:55.414Z,57.50
2018-07-15T17:25:24.593Z,57.20
2018-07-15T17:27:53.392Z,57.92
2018-07-15T17:30:22.718Z,59.11
2018-07-15T17:32:52.523Z,60.34
2018-07-15T17:35:21.698Z,61.39
2018-07-15T17:37:50.826Z,63.92
2018-07-15T17:40:20.101Z,65.34
2018-07-15T17:42:49.444Z,67.76
2018-07-15T17:45:18.909Z,67.46
2018-07-15T17:47:48.134Z,67.38
2018-07-15T17:50:17.605Z,68.45
2018-07-15T17:52:47.007Z,68.33
2018-07-15T17:55:16.217Z,69.53
2018-07-15T17:57:45.405Z,71.28
2018-07-15T18:00:14.545Z,73.54
2018-07-15T18:02:43.839Z,72.67
2018-07-15T18:05:12.809Z,72.04
2018-07-15T18:07:42.046Z,70.16
2018-07-15T18:10:11.189Z,72.47
2018-07-15T18:12:40.225Z,76.42
2018-07-15T18:15:09.417Z,74.10
2018-07-15T18:17:38.573Z,75.40
2018-07-15T18:20:07.751Z,77.23
2018-07-15T18:22:37.004Z,77.59
2018-07-15T18:25:06.238Z,78.47
2018-07-15T18:27:35.372Z,78.66
2018-07-15T18:30:04.448Z,78.76
2018-07-15T18:32:33.759Z,81.79
2018-07-15T18:35:03.134Z,81.89
2018-07-15T18:37:32.551Z,82.48
2018-07-15T18:40:01.788Z,84.03
2018-07-15T18:42:31.074Z,84.43
2018-07-15T18:45:00.384Z,84.44
2018-07-15T18:47:29.384Z,85.43
2018-07-15T18:49:58.674Z,86.96
2018-07-15T18:52:27.896Z,85.79
2018-07-15T18:54:57.028Z,86.39
2018-07-15T18:57:26.257Z,86.04
2018-07-15T18:59:55.279Z,85.82
2018-07-15T19:02:24.452Z,87.10
2018-07-15T19:04:53.657Z,86.85
2018-07-15T19:07:22.901Z,86.94
2018-07-15T19:09:52.103Z,86.62
2018-07-15T19:12:21.254Z,83.25
2018-07-15T19:14:50.437Z,85.91
2018-07-15T19:17:19.791Z,85.92
2018-07-15T19:19:49.069Z,85.69
2018-07-15T19:22:18.263Z,84.79
2018-07-15T19:24:48.981Z,86.09
2018-07-15T19:27:18.179Z,86.30
2018-07-15T19:29:47.314Z,87.29
2018-07-15T19:32:22.410Z,87.33
2018-07-15T19:34:55.747Z,88.76
2018-07-15T19:37:29.999Z,89.61
2018-07-15T19:39:59.533Z,90.13
2018-07-15T19:42:28.681Z,90.55
2018-07-15T19:44:57.733Z,90.51
2018-07-15T19:47:26.972Z,90.90
2018-07-15T19:49:56.162Z,91.07
2018-07-15T19:52:25.312Z,91.50
2018-07-15T19:54:54.637Z,91.77
2018-07-15T19:57:23.922Z,91.33
2018-07-15T19:59:53.158Z,92.70
2018-07-15T20:02:22.315Z,91.85
2018-07-15T20:04:51.544Z,90.64
2018-07-15T20:07:20.717Z,90.73
2018-07-15T20:09:49.913Z,92.03
2018-07-15T20:12:25.142Z,93.80
2018-07-15T20:14:59.775Z,92.86
2018-07-15T20:17:34.730Z,92.39
2018-07-15T20:20:08.505Z,92.97
2018-07-15T20:22:43.503Z,92.77
2018-07-15T20:25:16.936Z,94.00
2018-07-15T20:27:51.073Z,93.76
2018-07-15T20:30:25.638Z,93.00
2018-07-15T20:33:00.931Z,93.26
2018-07-15T20:35:35.433Z,94.88
2018-07-15T20:38:08.759Z,94.36
2018-07-15T20:40:37.860Z,94.92
2018-07-15T20:43:06.594Z,94.12
2018-07-15T20:45:35.329Z,95.19
2018-07-15T20:48:04.202Z,95.58
2018-07-15T20:50:32.950Z,95.73
2018-07-15T20:53:01.823Z,94.84
2018-07-15T20:55:30.537Z,95.73
2018-07-15T20:57:59.250Z,96.53
2018-07-15T21:00:27.949Z,95.19
2018-07-15T21:02:56.677Z,93.40
2018-07-15T21:05:25.386Z,94.35
2018-07-15T21:07:54.333Z,95.68
2018-07-15T21:10:23.587Z,92.54
2018-07-15T21:12:52.710Z,90.79
2018-07-15T21:15:21.947Z,90.00
2018-07-15T21:17:51.065Z,90.17
2018-07-15T21:20:19.976Z,88.41
2018-07-15T21:22:48.978Z,88.90
2018-07-15T21:25:17.942Z,88.26
2018-07-15T21:27:46.863Z,89.24
2018-07-15T21:30:15.902Z,90.67
2018-07-15T21:32:45.057Z,90.43
2018-07-15T21:35:13.982Z,91.21
2018-07-15T21:37:42.922Z,92.18
2018-07-15T21:40:12.154Z,90.32
2018-07-15T21:42:41.445Z,89.86
2018-07-15T21:45:10.738Z,88.85
2018-07-15T21:47:40.069Z,89.09
2018-07-15T21:50:09.271Z,90.24
2018-07-15T21:52:38.478Z,90.45
2018-07-15T21:55:07.733Z,90.64
2018-07-15T21:57:36.980Z,91.51
2018-07-15T22:00:07.059Z,90.89
2018-07-15T22:02:36.178Z,89.90
2018-07-15T22:05:05.387Z,90.28
2018-07-15T22:07:45.283Z,89.27
2018-07-15T22:10:24.406Z,88.86
2018-07-15T22:12:53.525Z,88.24
2018-07-15T22:15:22.217Z,89.05
2018-07-15T22:17:50.935Z,88.38
2018-07-15T22:20:19.641Z,88.94
2018-07-15T22:22:48.414Z,89.69
2018-07-15T22:25:17.114Z,90.37
2018-07-15T22:27:45.841Z,88.47
2018-07-15T22:30:14.561Z,88.38
2018-07-15T22:32:43.761Z,88.36
2018-07-15T22:35:12.488Z,86.92
2018-07-15T22:37:41.246Z,87.41
2018-07-15T22:40:09.937Z,87.53
2018-07-15T22:42:38.656Z,87.57
2018-07-15T22:45:07.776Z,88.06
2018-07-15T22:47:36.496Z,88.15
2018-07-15T22:50:05.229Z,89.42
2018-07-15T22:52:34.042Z,89.39
2018-07-15T22:55:02.738Z,89.84
2018-07-15T22:57:31.470Z,90.79
2018-07-15T23:00:00.178Z,88.59
2018-07-15T23:02:28.891Z,88.71
2018-07-15T23:05:36.110Z,88.14
2018-07-15T23:08:05.691Z,88.38
2018-07-15T23:10:34.887Z,89.92
2018-07-15T23:13:05.229Z,90.19
2018-07-15T23:15:34.882Z,90.62
2018-07-15T23:18:04.050Z,90.34
2018-07-15T23:20:33.945Z,90.69
2018-07-15T23:23:04.161Z,90.36
2018-07-15T23:25:33.674Z,89.17
2018-07-15T23:28:03.265Z,89.05
2018-07-15T23:30:33.144Z,90.34
2018-07-15T23:33:02.673Z,89.04
2018-07-15T23:35:32.334Z,88.43
2018-07-15T23:38:01.447Z,87.92
2018-07-15T23:40:30.592Z,88.44
2018-07-15T23:43:00.237Z,87.97
2018-07-15T23:45:30.186Z,89.06
2018-07-15T23:47:59.314Z,88.39
2018-07-15T23:50:28.362Z,89.35
2018-07-15T23:52:57.525Z,88.87
2018-07-15T23:55:26.821Z,89.92
2018-07-15T23:57:56.085Z,88.50
